sensor_id;sensor_type;location;lat;lon;timestamp;P1;durP1;ratioP1;P2;durP2;ratioP2
37297;SDS011;30517;51.932;4.278;2023-10-09T00:00:44;6.25;;;3.58;;
37297;SDS011;30517;51.932;4.278;2023-10-09T00:03:44;6.80;;;3.15;;
37297;SDS011;30517;51.932;4.278;2023-10-09T00:06:44;7.53;;;3.42;;
37297;SDS011;30517;51.932;4.278;2023-10-09T00:09:45;6.75;;;3.70;;
37297;SDS011;30517;51.932;4.278;2023-10-09T00:12:44;6.13;;;3.22;;
37297;SDS011;30517;51.932;4.278;2023-10-09T00:15:47;7.93;;;3.60;;
37297;SDS011;30517;51.932;4.278;2023-10-09T00:18:51;8.07;;;3.40;;
37297;SDS011;30517;51.932;4.278;2023-10-09T00:21:52;6.63;;;3.40;;
37297;SDS011;30517;51.932;4.278;2023-10-09T00:24:54;5.68;;;3.10;;
37297;SDS011;30517;51.932;4.278;2023-10-09T00:28:20;6.10;;;3.40;;
37297;SDS011;30517;51.932;4.278;2023-10-09T00:31:21;6.95;;;3.47;;
37297;SDS011;30517;51.932;4.278;2023-10-09T00:34:32;5.93;;;3.30;;
37297;SDS011;30517;51.932;4.278;2023-10-09T00:37:38;6.45;;;3.03;;
37297;SDS011;30517;51.932;4.278;2023-10-09T00:40:38;6.22;;;3.47;;
37297;SDS011;30517;51.932;4.278;2023-10-09T00:43:44;5.63;;;2.88;;
37297;SDS011;30517;51.932;4.278;2023-10-09T00:46:43;6.05;;;3.00;;
37297;SDS011;30517;51.932;4.278;2023-10-09T00:49:52;5.70;;;3.10;;
37297;SDS011;30517;51.932;4.278;2023-10-09T00:53:20;6.60;;;3.13;;
37297;SDS011;30517;51.932;4.278;2023-10-09T00:56:30;6.85;;;2.90;;
37297;SDS011;30517;51.932;4.278;2023-10-09T00:59:37;7.43;;;3.08;;
37297;SDS011;30517;51.932;4.278;2023-10-09T01:02:38;6.07;;;3.10;;
37297;SDS011;30517;51.932;4.278;2023-10-09T01:05:42;5.40;;;3.15;;
37297;SDS011;30517;51.932;4.278;2023-10-09T01:09:13;6.90;;;3.17;;
37297;SDS011;30517;51.932;4.278;2023-10-09T01:12:15;6.25;;;2.78;;
37297;SDS011;30517;51.932;4.278;2023-10-09T01:15:17;6.82;;;3.50;;
37297;SDS011;30517;51.932;4.278;2023-10-09T01:18:34;5.50;;;2.90;;
37297;SDS011;30517;51.932;4.278;2023-10-09T01:21:37;5.30;;;2.42;;
37297;SDS011;30517;51.932;4.278;2023-10-09T01:24:38;5.88;;;2.78;;
37297;SDS011;30517;51.932;4.278;2023-10-09T01:27:39;5.95;;;2.88;;
37297;SDS011;30517;51.932;4.278;2023-10-09T01:30:43;6.33;;;3.30;;
37297;SDS011;30517;51.932;4.278;2023-10-09T01:33:42;4.72;;;2.55;;
37297;SDS011;30517;51.932;4.278;2023-10-09T01:36:43;6.10;;;2.83;;
37297;SDS011;30517;51.932;4.278;2023-10-09T01:39:56;5.38;;;2.85;;
37297;SDS011;30517;51.932;4.278;2023-10-09T01:42:57;6.25;;;3.05;;
37297;SDS011;30517;51.932;4.278;2023-10-09T01:45:57;5.05;;;2.72;;
37297;SDS011;30517;51.932;4.278;2023-10-09T01:48:59;5.60;;;2.92;;
37297;SDS011;30517;51.932;4.278;2023-10-09T01:52:07;6.47;;;2.92;;
37297;SDS011;30517;51.932;4.278;2023-10-09T01:55:08;6.05;;;3.13;;
37297;SDS011;30517;51.932;4.278;2023-10-09T01:58:11;7.13;;;3.30;;
37297;SDS011;30517;51.932;4.278;2023-10-09T02:01:31;7.82;;;3.10;;
37297;SDS011;30517;51.932;4.278;2023-10-09T02:04:32;7.72;;;3.47;;
37297;SDS011;30517;51.932;4.278;2023-10-09T02:07:32;7.10;;;2.78;;
37297;SDS011;30517;51.932;4.278;2023-10-09T02:10:39;6.47;;;2.70;;
37297;SDS011;30517;51.932;4.278;2023-10-09T02:13:46;6.72;;;2.70;;
37297;SDS011;30517;51.932;4.278;2023-10-09T02:16:52;6.03;;;2.83;;
37297;SDS011;30517;51.932;4.278;2023-10-09T02:20:01;5.82;;;3.10;;
37297;SDS011;30517;51.932;4.278;2023-10-09T02:23:15;5.80;;;2.77;;
37297;SDS011;30517;51.932;4.278;2023-10-09T02:26:16;5.57;;;2.90;;
37297;SDS011;30517;51.932;4.278;2023-10-09T02:29:36;6.28;;;2.83;;
37297;SDS011;30517;51.932;4.278;2023-10-09T02:32:37;6.28;;;2.92;;
37297;SDS011;30517;51.932;4.278;2023-10-09T02:35:38;5.68;;;2.53;;
37297;SDS011;30517;51.932;4.278;2023-10-09T02:38:41;5.85;;;3.13;;
37297;SDS011;30517;51.932;4.278;2023-10-09T02:41:41;6.40;;;3.20;;
37297;SDS011;30517;51.932;4.278;2023-10-09T02:44:48;5.78;;;2.78;;
37297;SDS011;30517;51.932;4.278;2023-10-09T02:47:50;6.32;;;2.90;;
37297;SDS011;30517;51.932;4.278;2023-10-09T02:50:50;4.85;;;2.80;;
37297;SDS011;30517;51.932;4.278;2023-10-09T02:53:49;6.13;;;2.97;;
37297;SDS011;30517;51.932;4.278;2023-10-09T02:56:50;5.47;;;3.05;;
37297;SDS011;30517;51.932;4.278;2023-10-09T02:59:55;6.65;;;2.85;;
37297;SDS011;30517;51.932;4.278;2023-10-09T03:02:55;5.88;;;3.13;;
37297;SDS011;30517;51.932;4.278;2023-10-09T03:05:56;4.90;;;2.55;;
37297;SDS011;30517;51.932;4.278;2023-10-09T03:08:58;6.35;;;3.00;;
37297;SDS011;30517;51.932;4.278;2023-10-09T03:11:59;7.95;;;2.80;;
37297;SDS011;30517;51.932;4.278;2023-10-09T03:15:03;6.32;;;2.90;;
37297;SDS011;30517;51.932;4.278;2023-10-09T03:18:07;6.10;;;2.75;;
37297;SDS011;30517;51.932;4.278;2023-10-09T03:21:06;5.95;;;3.13;;
37297;SDS011;30517;51.932;4.278;2023-10-09T03:24:05;6.82;;;3.05;;
37297;SDS011;30517;51.932;4.278;2023-10-09T03:27:07;6.20;;;2.85;;
37297;SDS011;30517;51.932;4.278;2023-10-09T03:30:06;6.53;;;2.85;;
37297;SDS011;30517;51.932;4.278;2023-10-09T03:33:09;5.30;;;2.72;;
37297;SDS011;30517;51.932;4.278;2023-10-09T03:36:13;7.13;;;3.28;;
37297;SDS011;30517;51.932;4.278;2023-10-09T03:39:15;5.22;;;2.80;;
37297;SDS011;30517;51.932;4.278;2023-10-09T03:42:33;5.70;;;2.92;;
37297;SDS011;30517;51.932;4.278;2023-10-09T03:45:34;6.40;;;2.90;;
37297;SDS011;30517;51.932;4.278;2023-10-09T03:48:34;5.82;;;3.17;;
37297;SDS011;30517;51.932;4.278;2023-10-09T03:51:35;5.70;;;2.78;;
37297;SDS011;30517;51.932;4.278;2023-10-09T03:54:35;6.65;;;2.92;;
37297;SDS011;30517;51.932;4.278;2023-10-09T03:57:37;5.70;;;2.78;;
37297;SDS011;30517;51.932;4.278;2023-10-09T04:00:37;5.88;;;3.17;;
37297;SDS011;30517;51.932;4.278;2023-10-09T04:03:44;5.50;;;2.85;;
37297;SDS011;30517;51.932;4.278;2023-10-09T04:06:43;7.43;;;3.00;;
37297;SDS011;30517;51.932;4.278;2023-10-09T04:09:45;6.10;;;2.72;;
37297;SDS011;30517;51.932;4.278;2023-10-09T04:12:50;5.00;;;2.70;;
37297;SDS011;30517;51.932;4.278;2023-10-09T04:15:51;6.22;;;3.00;;
37297;SDS011;30517;51.932;4.278;2023-10-09T04:18:52;11.80;;;4.00;;
37297;SDS011;30517;51.932;4.278;2023-10-09T04:21:54;11.48;;;3.90;;
37297;SDS011;30517;51.932;4.278;2023-10-09T04:24:57;9.73;;;3.78;;
37297;SDS011;30517;51.932;4.278;2023-10-09T04:27:59;11.70;;;3.63;;
37297;SDS011;30517;51.932;4.278;2023-10-09T04:31:08;9.93;;;3.92;;
37297;SDS011;30517;51.932;4.278;2023-10-09T04:34:11;8.05;;;3.83;;
37297;SDS011;30517;51.932;4.278;2023-10-09T04:37:29;9.32;;;3.90;;
37297;SDS011;30517;51.932;4.278;2023-10-09T04:40:38;11.77;;;4.38;;
37297;SDS011;30517;51.932;4.278;2023-10-09T04:43:49;9.85;;;3.92;;
37297;SDS011;30517;51.932;4.278;2023-10-09T04:46:49;10.18;;;3.88;;
37297;SDS011;30517;51.932;4.278;2023-10-09T04:50:09;12.45;;;3.65;;
37297;SDS011;30517;51.932;4.278;2023-10-09T04:53:28;11.85;;;4.03;;
37297;SDS011;30517;51.932;4.278;2023-10-09T04:56:42;7.80;;;3.40;;
37297;SDS011;30517;51.932;4.278;2023-10-09T04:59:51;7.13;;;3.67;;
37297;SDS011;30517;51.932;4.278;2023-10-09T05:02:50;11.23;;;5.00;;
37297;SDS011;30517;51.932;4.278;2023-10-09T05:05:53;9.43;;;3.95;;
37297;SDS011;30517;51.932;4.278;2023-10-09T05:12:19;8.13;;;3.65;;
37297;SDS011;30517;51.932;4.278;2023-10-09T05:15:25;11.00;;;4.53;;
37297;SDS011;30517;51.932;4.278;2023-10-09T05:18:33;6.60;;;3.58;;
37297;SDS011;30517;51.932;4.278;2023-10-09T05:21:36;7.90;;;3.30;;
37297;SDS011;30517;51.932;4.278;2023-10-09T05:24:40;10.05;;;3.95;;
37297;SDS011;30517;51.932;4.278;2023-10-09T05:27:47;6.72;;;3.35;;
37297;SDS011;30517;51.932;4.278;2023-10-09T05:30:50;6.38;;;3.40;;
37297;SDS011;30517;51.932;4.278;2023-10-09T05:34:29;7.78;;;3.75;;
37297;SDS011;30517;51.932;4.278;2023-10-09T05:37:33;7.35;;;2.78;;
37297;SDS011;30517;51.932;4.278;2023-10-09T05:40:33;7.82;;;3.00;;
37297;SDS011;30517;51.932;4.278;2023-10-09T05:43:34;7.70;;;3.40;;
37297;SDS011;30517;51.932;4.278;2023-10-09T05:46:52;6.38;;;3.22;;
37297;SDS011;30517;51.932;4.278;2023-10-09T05:50:10;7.13;;;3.30;;
37297;SDS011;30517;51.932;4.278;2023-10-09T05:53:13;7.00;;;3.30;;
37297;SDS011;30517;51.932;4.278;2023-10-09T05:56:33;7.13;;;3.13;;
37297;SDS011;30517;51.932;4.278;2023-10-09T05:59:58;8.20;;;3.67;;
37297;SDS011;30517;51.932;4.278;2023-10-09T06:03:17;7.32;;;3.22;;
37297;SDS011;30517;51.932;4.278;2023-10-09T06:06:23;5.75;;;3.17;;
37297;SDS011;30517;51.932;4.278;2023-10-09T06:09:41;7.20;;;2.70;;
37297;SDS011;30517;51.932;4.278;2023-10-09T06:12:51;7.82;;;3.22;;
37297;SDS011;30517;51.932;4.278;2023-10-09T06:15:54;6.38;;;3.28;;
37297;SDS011;30517;51.932;4.278;2023-10-09T06:19:18;6.90;;;3.60;;
37297;SDS011;30517;51.932;4.278;2023-10-09T06:22:21;7.95;;;3.15;;
37297;SDS011;30517;51.932;4.278;2023-10-09T06:25:39;8.60;;;3.03;;
37297;SDS011;30517;51.932;4.278;2023-10-09T06:28:41;9.13;;;3.70;;
37297;SDS011;30517;51.932;4.278;2023-10-09T06:31:48;9.13;;;4.22;;
37297;SDS011;30517;51.932;4.278;2023-10-09T06:34:57;8.30;;;3.65;;
37297;SDS011;30517;51.932;4.278;2023-10-09T06:38:20;11.20;;;3.95;;
37297;SDS011;30517;51.932;4.278;2023-10-09T06:42:00;7.60;;;3.55;;
37297;SDS011;30517;51.932;4.278;2023-10-09T06:45:14;8.32;;;4.10;;
37297;SDS011;30517;51.932;4.278;2023-10-09T06:48:43;8.57;;;3.97;;
37297;SDS011;30517;51.932;4.278;2023-10-09T06:51:45;7.13;;;3.80;;
37297;SDS011;30517;51.932;4.278;2023-10-09T06:54:45;7.68;;;3.65;;
37297;SDS011;30517;51.932;4.278;2023-10-09T06:58:10;7.57;;;3.92;;
37297;SDS011;30517;51.932;4.278;2023-10-09T07:01:29;7.32;;;3.17;;
37297;SDS011;30517;51.932;4.278;2023-10-09T07:04:45;6.55;;;3.42;;
37297;SDS011;30517;51.932;4.278;2023-10-09T07:07:47;6.97;;;3.10;;
37297;SDS011;30517;51.932;4.278;2023-10-09T07:11:13;7.03;;;3.20;;
37297;SDS011;30517;51.932;4.278;2023-10-09T07:14:41;12.18;;;4.03;;
37297;SDS011;30517;51.932;4.278;2023-10-09T07:18:10;7.47;;;3.35;;
37297;SDS011;30517;51.932;4.278;2023-10-09T07:21:21;14.27;;;4.40;;
37297;SDS011;30517;51.932;4.278;2023-10-09T07:24:27;14.57;;;5.07;;
37297;SDS011;30517;51.932;4.278;2023-10-09T07:27:36;13.32;;;4.70;;
37297;SDS011;30517;51.932;4.278;2023-10-09T07:30:50;10.80;;;5.10;;
37297;SDS011;30517;51.932;4.278;2023-10-09T07:33:56;15.60;;;5.32;;
37297;SDS011;30517;51.932;4.278;2023-10-09T07:36:55;11.35;;;5.47;;
37297;SDS011;30517;51.932;4.278;2023-10-09T07:39:56;12.57;;;5.13;;
37297;SDS011;30517;51.932;4.278;2023-10-09T07:42:56;13.02;;;5.43;;
37297;SDS011;30517;51.932;4.278;2023-10-09T07:46:03;12.30;;;5.32;;
37297;SDS011;30517;51.932;4.278;2023-10-09T07:49:03;9.70;;;4.78;;
37297;SDS011;30517;51.932;4.278;2023-10-09T07:52:10;12.60;;;5.82;;
37297;SDS011;30517;51.932;4.278;2023-10-09T07:55:11;10.15;;;5.25;;
37297;SDS011;30517;51.932;4.278;2023-10-09T07:58:24;9.57;;;4.55;;
37297;SDS011;30517;51.932;4.278;2023-10-09T08:01:24;9.05;;;4.63;;
37297;SDS011;30517;51.932;4.278;2023-10-09T08:04:27;11.13;;;4.53;;
37297;SDS011;30517;51.932;4.278;2023-10-09T08:07:46;9.27;;;4.80;;
37297;SDS011;30517;51.932;4.278;2023-10-09T08:11:17;10.00;;;4.28;;
37297;SDS011;30517;51.932;4.278;2023-10-09T08:14:41;8.93;;;4.75;;
37297;SDS011;30517;51.932;4.278;2023-10-09T08:17:56;9.00;;;4.82;;
37297;SDS011;30517;51.932;4.278;2023-10-09T08:21:08;7.55;;;4.07;;
37297;SDS011;30517;51.932;4.278;2023-10-09T08:24:10;9.05;;;4.47;;
37297;SDS011;30517;51.932;4.278;2023-10-09T08:27:30;8.60;;;4.85;;
37297;SDS011;30517;51.932;4.278;2023-10-09T08:30:30;9.15;;;4.78;;
37297;SDS011;30517;51.932;4.278;2023-10-09T08:33:42;8.15;;;4.00;;
37297;SDS011;30517;51.932;4.278;2023-10-09T08:36:42;8.70;;;4.28;;
37297;SDS011;30517;51.932;4.278;2023-10-09T08:39:50;9.65;;;4.47;;
37297;SDS011;30517;51.932;4.278;2023-10-09T08:42:53;8.60;;;4.65;;
37297;SDS011;30517;51.932;4.278;2023-10-09T08:45:53;8.63;;;4.88;;
37297;SDS011;30517;51.932;4.278;2023-10-09T08:48:59;8.38;;;4.28;;
37297;SDS011;30517;51.932;4.278;2023-10-09T08:51:59;9.70;;;4.57;;
37297;SDS011;30517;51.932;4.278;2023-10-09T08:55:01;7.68;;;4.13;;
37297;SDS011;30517;51.932;4.278;2023-10-09T08:58:05;8.35;;;4.57;;
37297;SDS011;30517;51.932;4.278;2023-10-09T09:01:15;8.20;;;4.10;;
37297;SDS011;30517;51.932;4.278;2023-10-09T09:04:38;9.50;;;4.32;;
37297;SDS011;30517;51.932;4.278;2023-10-09T09:07:39;8.55;;;4.35;;
37297;SDS011;30517;51.932;4.278;2023-10-09T09:10:41;7.22;;;4.30;;
37297;SDS011;30517;51.932;4.278;2023-10-09T09:13:47;8.38;;;4.05;;
37297;SDS011;30517;51.932;4.278;2023-10-09T09:16:47;7.95;;;4.15;;
37297;SDS011;30517;51.932;4.278;2023-10-09T09:19:47;7.50;;;3.92;;
37297;SDS011;30517;51.932;4.278;2023-10-09T09:22:52;8.95;;;4.22;;
37297;SDS011;30517;51.932;4.278;2023-10-09T09:25:55;9.50;;;4.13;;
37297;SDS011;30517;51.932;4.278;2023-10-09T09:28:58;8.25;;;4.13;;
37297;SDS011;30517;51.932;4.278;2023-10-09T09:31:58;8.50;;;4.38;;
37297;SDS011;30517;51.932;4.278;2023-10-09T09:35:14;11.27;;;4.47;;
37297;SDS011;30517;51.932;4.278;2023-10-09T09:38:19;6.53;;;3.22;;
37297;SDS011;30517;51.932;4.278;2023-10-09T09:41:21;8.25;;;4.38;;
37297;SDS011;30517;51.932;4.278;2023-10-09T09:44:23;9.15;;;4.82;;
37297;SDS011;30517;51.932;4.278;2023-10-09T09:47:30;7.75;;;4.30;;
37297;SDS011;30517;51.932;4.278;2023-10-09T09:50:34;7.63;;;3.85;;
37297;SDS011;30517;51.932;4.278;2023-10-09T09:53:42;8.43;;;4.00;;
37297;SDS011;30517;51.932;4.278;2023-10-09T09:56:47;8.13;;;3.88;;
37297;SDS011;30517;51.932;4.278;2023-10-09T09:59:50;8.88;;;4.10;;
37297;SDS011;30517;51.932;4.278;2023-10-09T10:02:50;7.85;;;4.05;;
37297;SDS011;30517;51.932;4.278;2023-10-09T10:05:54;6.40;;;3.63;;
37297;SDS011;30517;51.932;4.278;2023-10-09T10:08:56;7.78;;;3.90;;
37297;SDS011;30517;51.932;4.278;2023-10-09T10:11:55;9.93;;;4.50;;
37297;SDS011;30517;51.932;4.278;2023-10-09T10:15:02;8.75;;;4.20;;
37297;SDS011;30517;51.932;4.278;2023-10-09T10:18:06;7.45;;;3.83;;
37297;SDS011;30517;51.932;4.278;2023-10-09T10:27:29;5.88;;;3.50;;
37297;SDS011;30517;51.932;4.278;2023-10-09T10:30:46;7.88;;;3.90;;
37297;SDS011;30517;51.932;4.278;2023-10-09T10:36:54;8.88;;;3.80;;
37297;SDS011;30517;51.932;4.278;2023-10-09T10:40:05;7.68;;;3.50;;
37297;SDS011;30517;51.932;4.278;2023-10-09T10:43:18;9.20;;;4.32;;
37297;SDS011;30517;51.932;4.278;2023-10-09T10:46:35;8.38;;;4.53;;
37297;SDS011;30517;51.932;4.278;2023-10-09T10:49:43;6.95;;;3.53;;
37297;SDS011;30517;51.932;4.278;2023-10-09T10:58:56;7.53;;;4.10;;
37297;SDS011;30517;51.932;4.278;2023-10-09T11:01:59;7.55;;;4.32;;
37297;SDS011;30517;51.932;4.278;2023-10-09T11:05:02;7.70;;;3.83;;
37297;SDS011;30517;51.932;4.278;2023-10-09T11:08:25;8.05;;;4.20;;
37297;SDS011;30517;51.932;4.278;2023-10-09T11:11:31;7.32;;;3.95;;
37297;SDS011;30517;51.932;4.278;2023-10-09T11:14:46;8.43;;;4.05;;
37297;SDS011;30517;51.932;4.278;2023-10-09T11:18:04;8.65;;;3.97;;
37297;SDS011;30517;51.932;4.278;2023-10-09T11:21:24;8.70;;;4.20;;
37297;SDS011;30517;51.932;4.278;2023-10-09T11:24:29;8.27;;;4.20;;
37297;SDS011;30517;51.932;4.278;2023-10-09T11:27:33;7.80;;;4.35;;
37297;SDS011;30517;51.932;4.278;2023-10-09T11:30:38;8.10;;;3.63;;
37297;SDS011;30517;51.932;4.278;2023-10-09T11:33:57;7.72;;;3.90;;
37297;SDS011;30517;51.932;4.278;2023-10-09T11:36:58;9.55;;;4.38;;
37297;SDS011;30517;51.932;4.278;2023-10-09T11:39:59;8.98;;;4.15;;
37297;SDS011;30517;51.932;4.278;2023-10-09T11:43:00;9.45;;;4.25;;
37297;SDS011;30517;51.932;4.278;2023-10-09T11:46:08;7.30;;;3.75;;
37297;SDS011;30517;51.932;4.278;2023-10-09T11:49:31;7.10;;;4.20;;
37297;SDS011;30517;51.932;4.278;2023-10-09T11:52:58;6.68;;;3.33;;
37297;SDS011;30517;51.932;4.278;2023-10-09T11:56:07;10.75;;;4.30;;
37297;SDS011;30517;51.932;4.278;2023-10-09T11:59:12;8.48;;;4.05;;
37297;SDS011;30517;51.932;4.278;2023-10-09T12:02:11;7.07;;;3.22;;
37297;SDS011;30517;51.932;4.278;2023-10-09T12:05:11;9.55;;;4.28;;
37297;SDS011;30517;51.932;4.278;2023-10-09T12:11:15;6.55;;;3.83;;
37297;SDS011;30517;51.932;4.278;2023-10-09T12:14:21;7.45;;;4.03;;
37297;SDS011;30517;51.932;4.278;2023-10-09T12:17:22;8.35;;;3.88;;
37297;SDS011;30517;51.932;4.278;2023-10-09T12:20:24;7.03;;;3.40;;
37297;SDS011;30517;51.932;4.278;2023-10-09T12:23:30;8.23;;;4.07;;
37297;SDS011;30517;51.932;4.278;2023-10-09T12:29:33;7.80;;;4.20;;
37297;SDS011;30517;51.932;4.278;2023-10-09T12:32:33;7.05;;;3.85;;
37297;SDS011;30517;51.932;4.278;2023-10-09T12:35:38;8.35;;;4.20;;
37297;SDS011;30517;51.932;4.278;2023-10-09T12:38:38;9.80;;;4.28;;
37297;SDS011;30517;51.932;4.278;2023-10-09T12:41:44;8.15;;;4.10;;
37297;SDS011;30517;51.932;4.278;2023-10-09T12:44:44;8.32;;;3.97;;
37297;SDS011;30517;51.932;4.278;2023-10-09T12:47:43;8.60;;;3.90;;
37297;SDS011;30517;51.932;4.278;2023-10-09T12:50:43;7.95;;;4.40;;
37297;SDS011;30517;51.932;4.278;2023-10-09T12:53:46;7.95;;;3.97;;
37297;SDS011;30517;51.932;4.278;2023-10-09T12:56:55;7.45;;;3.78;;
37297;SDS011;30517;51.932;4.278;2023-10-09T12:59:56;8.38;;;4.28;;
37297;SDS011;30517;51.932;4.278;2023-10-09T13:02:55;9.43;;;4.10;;
37297;SDS011;30517;51.932;4.278;2023-10-09T13:05:55;9.90;;;4.45;;
37297;SDS011;30517;51.932;4.278;2023-10-09T13:08:55;8.48;;;4.53;;
37297;SDS011;30517;51.932;4.278;2023-10-09T13:11:58;8.48;;;4.47;;
37297;SDS011;30517;51.932;4.278;2023-10-09T13:14:59;7.60;;;3.60;;
37297;SDS011;30517;51.932;4.278;2023-10-09T13:17:58;8.63;;;4.75;;
37297;SDS011;30517;51.932;4.278;2023-10-09T13:20:57;8.18;;;4.20;;
37297;SDS011;30517;51.932;4.278;2023-10-09T13:24:01;7.75;;;3.95;;
37297;SDS011;30517;51.932;4.278;2023-10-09T13:27:01;8.13;;;4.05;;
37297;SDS011;30517;51.932;4.278;2023-10-09T13:30:03;7.15;;;4.10;;
37297;SDS011;30517;51.932;4.278;2023-10-09T13:33:07;9.23;;;4.93;;
37297;SDS011;30517;51.932;4.278;2023-10-09T13:36:13;8.43;;;4.47;;
37297;SDS011;30517;51.932;4.278;2023-10-09T13:39:26;7.93;;;4.50;;
37297;SDS011;30517;51.932;4.278;2023-10-09T13:42:26;8.00;;;4.72;;
37297;SDS011;30517;51.932;4.278;2023-10-09T13:45:26;9.32;;;4.55;;
37297;SDS011;30517;51.932;4.278;2023-10-09T13:48:26;12.35;;;5.47;;
37297;SDS011;30517;51.932;4.278;2023-10-09T13:51:26;10.18;;;5.60;;
37297;SDS011;30517;51.932;4.278;2023-10-09T13:54:30;9.85;;;5.53;;
37297;SDS011;30517;51.932;4.278;2023-10-09T13:57:33;9.18;;;5.32;;
37297;SDS011;30517;51.932;4.278;2023-10-09T14:00:34;13.52;;;5.65;;
37297;SDS011;30517;51.932;4.278;2023-10-09T14:03:40;9.48;;;5.22;;
37297;SDS011;30517;51.932;4.278;2023-10-09T14:06:41;8.07;;;5.00;;
37297;SDS011;30517;51.932;4.278;2023-10-09T14:09:43;8.88;;;5.40;;
37297;SDS011;30517;51.932;4.278;2023-10-09T14:12:43;10.65;;;5.25;;
37297;SDS011;30517;51.932;4.278;2023-10-09T14:15:43;10.07;;;5.05;;
37297;SDS011;30517;51.932;4.278;2023-10-09T14:18:45;13.60;;;5.70;;
37297;SDS011;30517;51.932;4.278;2023-10-09T14:21:52;13.07;;;5.22;;
37297;SDS011;30517;51.932;4.278;2023-10-09T14:24:52;8.20;;;4.93;;
37297;SDS011;30517;51.932;4.278;2023-10-09T14:27:56;9.85;;;5.18;;
37297;SDS011;30517;51.932;4.278;2023-10-09T14:30:56;10.63;;;5.22;;
37297;SDS011;30517;51.932;4.278;2023-10-09T14:33:59;10.70;;;5.35;;
37297;SDS011;30517;51.932;4.278;2023-10-09T14:37:00;10.15;;;5.13;;
37297;SDS011;30517;51.932;4.278;2023-10-09T14:39:59;9.15;;;4.90;;
37297;SDS011;30517;51.932;4.278;2023-10-09T14:42:59;11.35;;;5.13;;
37297;SDS011;30517;51.932;4.278;2023-10-09T14:45:58;8.80;;;5.15;;
37297;SDS011;30517;51.932;4.278;2023-10-09T14:48:58;8.18;;;4.90;;
37297;SDS011;30517;51.932;4.278;2023-10-09T14:51:59;10.18;;;5.53;;
37297;SDS011;30517;51.932;4.278;2023-10-09T14:54:59;7.75;;;4.60;;
37297;SDS011;30517;51.932;4.278;2023-10-09T14:57:59;8.27;;;4.43;;
37297;SDS011;30517;51.932;4.278;2023-10-09T15:01:06;9.60;;;4.78;;
37297;SDS011;30517;51.932;4.278;2023-10-09T15:04:08;8.75;;;5.40;;
37297;SDS011;30517;51.932;4.278;2023-10-09T15:07:13;10.07;;;5.13;;
37297;SDS011;30517;51.932;4.278;2023-10-09T15:10:14;9.00;;;5.05;;
37297;SDS011;30517;51.932;4.278;2023-10-09T15:13:14;9.30;;;5.18;;
37297;SDS011;30517;51.932;4.278;2023-10-09T15:16:18;8.43;;;4.75;;
37297;SDS011;30517;51.932;4.278;2023-10-09T15:19:20;11.00;;;4.95;;
37297;SDS011;30517;51.932;4.278;2023-10-09T15:22:28;7.90;;;4.32;;
37297;SDS011;30517;51.932;4.278;2023-10-09T15:25:34;10.60;;;4.68;;
37297;SDS011;30517;51.932;4.278;2023-10-09T15:28:38;10.43;;;4.85;;
37297;SDS011;30517;51.932;4.278;2023-10-09T15:31:39;8.55;;;4.30;;
37297;SDS011;30517;51.932;4.278;2023-10-09T15:34:42;10.68;;;4.80;;
37297;SDS011;30517;51.932;4.278;2023-10-09T15:37:42;9.20;;;4.70;;
37297;SDS011;30517;51.932;4.278;2023-10-09T15:40:42;7.38;;;4.35;;
37297;SDS011;30517;51.932;4.278;2023-10-09T15:43:42;8.68;;;4.25;;
37297;SDS011;30517;51.932;4.278;2023-10-09T15:46:43;7.63;;;3.88;;
37297;SDS011;30517;51.932;4.278;2023-10-09T15:49:46;7.57;;;4.20;;
37297;SDS011;30517;51.932;4.278;2023-10-09T15:52:45;8.35;;;4.20;;
37297;SDS011;30517;51.932;4.278;2023-10-09T15:55:48;8.93;;;4.07;;
37297;SDS011;30517;51.932;4.278;2023-10-09T15:58:50;8.85;;;4.75;;
37297;SDS011;30517;51.932;4.278;2023-10-09T16:01:52;9.45;;;4.40;;
37297;SDS011;30517;51.932;4.278;2023-10-09T16:04:52;8.13;;;4.15;;
37297;SDS011;30517;51.932;4.278;2023-10-09T16:07:52;7.60;;;3.88;;
37297;SDS011;30517;51.932;4.278;2023-10-09T16:10:52;7.60;;;4.15;;
37297;SDS011;30517;51.932;4.278;2023-10-09T16:13:52;8.82;;;4.70;;
37297;SDS011;30517;51.932;4.278;2023-10-09T16:16:52;9.20;;;4.35;;
37297;SDS011;30517;51.932;4.278;2023-10-09T16:19:54;8.23;;;3.90;;
37297;SDS011;30517;51.932;4.278;2023-10-09T16:22:53;8.32;;;3.83;;
37297;SDS011;30517;51.932;4.278;2023-10-09T16:25:54;6.82;;;3.70;;
37297;SDS011;30517;51.932;4.278;2023-10-09T16:28:56;8.02;;;4.22;;
37297;SDS011;30517;51.932;4.278;2023-10-09T16:32:03;7.85;;;3.88;;
37297;SDS011;30517;51.932;4.278;2023-10-09T16:35:06;7.90;;;3.85;;
37297;SDS011;30517;51.932;4.278;2023-10-09T16:38:08;7.18;;;4.07;;
37297;SDS011;30517;51.932;4.278;2023-10-09T16:41:11;7.20;;;3.67;;
37297;SDS011;30517;51.932;4.278;2023-10-09T16:44:12;7.75;;;4.28;;
37297;SDS011;30517;51.932;4.278;2023-10-09T16:47:15;8.75;;;4.20;;
37297;SDS011;30517;51.932;4.278;2023-10-09T16:50:18;9.05;;;4.38;;
37297;SDS011;30517;51.932;4.278;2023-10-09T16:53:18;8.23;;;3.80;;
37297;SDS011;30517;51.932;4.278;2023-10-09T16:56:19;9.95;;;4.18;;
37297;SDS011;30517;51.932;4.278;2023-10-09T16:59:37;8.98;;;4.32;;
37297;SDS011;30517;51.932;4.278;2023-10-09T17:03:14;6.55;;;3.75;;
37297;SDS011;30517;51.932;4.278;2023-10-09T17:06:40;8.45;;;3.50;;
37297;SDS011;30517;51.932;4.278;2023-10-09T17:13:44;7.95;;;3.90;;
37297;SDS011;30517;51.932;4.278;2023-10-09T17:17:13;7.28;;;4.07;;
37297;SDS011;30517;51.932;4.278;2023-10-09T17:20:14;7.07;;;4.03;;
37297;SDS011;30517;51.932;4.278;2023-10-09T17:27:54;7.68;;;3.65;;
37297;SDS011;30517;51.932;4.278;2023-10-09T17:30:59;10.50;;;4.13;;
37297;SDS011;30517;51.932;4.278;2023-10-09T17:38:14;7.45;;;3.97;;
37297;SDS011;30517;51.932;4.278;2023-10-09T17:41:26;7.30;;;3.97;;
37297;SDS011;30517;51.932;4.278;2023-10-09T17:44:38;8.15;;;3.72;;
37297;SDS011;30517;51.932;4.278;2023-10-09T17:48:07;7.10;;;4.18;;
37297;SDS011;30517;51.932;4.278;2023-10-09T17:51:13;6.93;;;3.78;;
37297;SDS011;30517;51.932;4.278;2023-10-09T17:54:20;8.18;;;3.58;;
37297;SDS011;30517;51.932;4.278;2023-10-09T17:57:27;6.70;;;3.80;;
37297;SDS011;30517;51.932;4.278;2023-10-09T18:00:32;9.05;;;3.83;;
37297;SDS011;30517;51.932;4.278;2023-10-09T18:04:34;7.97;;;4.00;;
37297;SDS011;30517;51.932;4.278;2023-10-09T18:08:29;7.32;;;3.85;;
37297;SDS011;30517;51.932;4.278;2023-10-09T18:11:29;9.32;;;4.00;;
37297;SDS011;30517;51.932;4.278;2023-10-09T18:17:59;7.43;;;3.78;;
37297;SDS011;30517;51.932;4.278;2023-10-09T18:25:44;7.07;;;3.53;;
37297;SDS011;30517;51.932;4.278;2023-10-09T18:29:23;7.75;;;4.18;;
37297;SDS011;30517;51.932;4.278;2023-10-09T18:32:56;7.68;;;3.75;;
37297;SDS011;30517;51.932;4.278;2023-10-09T18:36:29;6.93;;;3.45;;
37297;SDS011;30517;51.932;4.278;2023-10-09T18:40:16;7.43;;;3.72;;
37297;SDS011;30517;51.932;4.278;2023-10-09T18:43:33;7.63;;;3.65;;
37297;SDS011;30517;51.932;4.278;2023-10-09T18:47:20;7.28;;;3.63;;
37297;SDS011;30517;51.932;4.278;2023-10-09T18:50:29;6.15;;;3.72;;
37297;SDS011;30517;51.932;4.278;2023-10-09T18:54:07;7.57;;;3.85;;
37297;SDS011;30517;51.932;4.278;2023-10-09T18:57:06;6.90;;;4.00;;
37297;SDS011;30517;51.932;4.278;2023-10-09T19:00:28;6.95;;;3.78;;
37297;SDS011;30517;51.932;4.278;2023-10-09T19:03:42;7.85;;;3.72;;
37297;SDS011;30517;51.932;4.278;2023-10-09T19:07:25;7.40;;;4.13;;
37297;SDS011;30517;51.932;4.278;2023-10-09T19:10:36;6.07;;;3.58;;
37297;SDS011;30517;51.932;4.278;2023-10-09T19:13:56;7.25;;;3.50;;
37297;SDS011;30517;51.932;4.278;2023-10-09T19:16:56;7.47;;;3.50;;
37297;SDS011;30517;51.932;4.278;2023-10-09T19:19:58;7.03;;;3.60;;
37297;SDS011;30517;51.932;4.278;2023-10-09T19:23:16;6.50;;;3.30;;
37297;SDS011;30517;51.932;4.278;2023-10-09T19:26:15;6.45;;;3.72;;
37297;SDS011;30517;51.932;4.278;2023-10-09T19:29:44;6.00;;;3.53;;